sensor_id;sensor_type;location;lat;lon;timestamp;P1;durP1;ratioP1;P2;durP2;ratioP2
76202;SDS011;64985;46.364;17.008;2023-07-13T00:01:56;14.57;;;8.10;;
76202;SDS011;64985;46.364;17.008;2023-07-13T00:05:16;13.18;;;7.57;;
76202;SDS011;64985;46.364;17.008;2023-07-13T00:08:18;13.93;;;8.02;;
76202;SDS011;64985;46.364;17.008;2023-07-13T00:11:21;13.25;;;8.05;;
76202;SDS011;64985;46.364;17.008;2023-07-13T00:14:23;20.80;;;8.02;;
76202;SDS011;64985;46.364;17.008;2023-07-13T00:17:27;11.40;;;7.40;;
76202;SDS011;64985;46.364;17.008;2023-07-13T00:20:30;13.70;;;8.07;;
76202;SDS011;64985;46.364;17.008;2023-07-13T00:23:36;17.27;;;7.95;;
76202;SDS011;64985;46.364;17.008;2023-07-13T00:26:40;11.95;;;7.68;;
76202;SDS011;64985;46.364;17.008;2023-07-13T00:29:47;12.07;;;7.93;;
76202;SDS011;64985;46.364;17.008;2023-07-13T00:32:49;14.20;;;8.10;;
76202;SDS011;64985;46.364;17.008;2023-07-13T00:36:05;13.02;;;7.82;;
76202;SDS011;64985;46.364;17.008;2023-07-13T00:39:07;17.95;;;8.57;;
76202;SDS011;64985;46.364;17.008;2023-07-13T00:42:10;21.92;;;8.43;;
76202;SDS011;64985;46.364;17.008;2023-07-13T00:48:16;16.17;;;8.55;;
76202;SDS011;64985;46.364;17.008;2023-07-13T00:51:24;14.50;;;8.32;;
76202;SDS011;64985;46.364;17.008;2023-07-13T00:54:41;17.65;;;7.90;;
76202;SDS011;64985;46.364;17.008;2023-07-13T00:57:46;13.65;;;8.82;;
76202;SDS011;64985;46.364;17.008;2023-07-13T01:00:48;15.40;;;8.88;;
76202;SDS011;64985;46.364;17.008;2023-07-13T01:03:52;12.85;;;8.50;;
76202;SDS011;64985;46.364;17.008;2023-07-13T01:06:56;16.83;;;8.85;;
76202;SDS011;64985;46.364;17.008;2023-07-13T01:09:59;18.70;;;8.93;;
76202;SDS011;64985;46.364;17.008;2023-07-13T01:13:01;15.43;;;8.25;;
76202;SDS011;64985;46.364;17.008;2023-07-13T01:16:11;14.52;;;8.25;;
76202;SDS011;64985;46.364;17.008;2023-07-13T01:22:37;16.27;;;8.52;;
76202;SDS011;64985;46.364;17.008;2023-07-13T01:25:40;14.60;;;8.75;;
76202;SDS011;64985;46.364;17.008;2023-07-13T01:28:42;15.75;;;8.50;;
76202;SDS011;64985;46.364;17.008;2023-07-13T01:31:44;16.35;;;8.63;;
76202;SDS011;64985;46.364;17.008;2023-07-13T01:34:47;12.88;;;8.50;;
76202;SDS011;64985;46.364;17.008;2023-07-13T01:37:49;13.50;;;8.20;;
76202;SDS011;64985;46.364;17.008;2023-07-13T01:40:52;12.40;;;7.63;;
76202;SDS011;64985;46.364;17.008;2023-07-13T01:43:54;13.77;;;7.78;;
76202;SDS011;64985;46.364;17.008;2023-07-13T01:46:57;12.70;;;7.50;;
76202;SDS011;64985;46.364;17.008;2023-07-13T01:49:59;11.63;;;7.22;;
76202;SDS011;64985;46.364;17.008;2023-07-13T01:53:01;10.68;;;7.88;;
76202;SDS011;64985;46.364;17.008;2023-07-13T01:56:04;14.30;;;8.18;;
76202;SDS011;64985;46.364;17.008;2023-07-13T01:59:06;17.13;;;8.30;;
76202;SDS011;64985;46.364;17.008;2023-07-13T02:02:08;13.25;;;8.32;;
76202;SDS011;64985;46.364;17.008;2023-07-13T02:05:11;14.90;;;8.00;;
76202;SDS011;64985;46.364;17.008;2023-07-13T02:08:14;12.07;;;8.25;;
76202;SDS011;64985;46.364;17.008;2023-07-13T02:11:16;16.20;;;8.60;;
76202;SDS011;64985;46.364;17.008;2023-07-13T02:14:19;14.73;;;8.18;;
76202;SDS011;64985;46.364;17.008;2023-07-13T02:17:21;11.88;;;8.07;;
76202;SDS011;64985;46.364;17.008;2023-07-13T02:20:23;17.38;;;8.75;;
76202;SDS011;64985;46.364;17.008;2023-07-13T02:23:26;12.00;;;8.18;;
76202;SDS011;64985;46.364;17.008;2023-07-13T02:26:28;18.23;;;8.65;;
76202;SDS011;64985;46.364;17.008;2023-07-13T02:29:30;15.82;;;8.60;;
76202;SDS011;64985;46.364;17.008;2023-07-13T02:32:32;16.45;;;8.98;;
76202;SDS011;64985;46.364;17.008;2023-07-13T02:35:35;14.73;;;8.45;;
76202;SDS011;64985;46.364;17.008;2023-07-13T02:38:37;14.57;;;8.70;;
76202;SDS011;64985;46.364;17.008;2023-07-13T02:41:39;19.02;;;9.02;;
76202;SDS011;64985;46.364;17.008;2023-07-13T02:44:42;17.63;;;9.02;;
76202;SDS011;64985;46.364;17.008;2023-07-13T02:47:44;11.48;;;9.07;;
76202;SDS011;64985;46.364;17.008;2023-07-13T02:50:46;17.98;;;9.38;;
76202;SDS011;64985;46.364;17.008;2023-07-13T02:53:48;13.55;;;5.32;;
76202;SDS011;64985;46.364;17.008;2023-07-13T06:57:00;4.43;;;1.65;;
76202;SDS011;64985;46.364;17.008;2023-07-13T07:00:02;5.85;;;1.48;;
76202;SDS011;64985;46.364;17.008;2023-07-13T07:03:05;4.32;;;1.48;;
76202;SDS011;64985;46.364;17.008;2023-07-13T07:06:12;2.35;;;1.08;;
76202;SDS011;64985;46.364;17.008;2023-07-13T07:09:18;4.80;;;1.38;;
76202;SDS011;64985;46.364;17.008;2023-07-13T07:12:20;5.28;;;1.20;;
76202;SDS011;64985;46.364;17.008;2023-07-13T07:15:23;2.72;;;1.10;;
76202;SDS011;64985;46.364;17.008;2023-07-13T07:18:25;4.47;;;1.20;;
76202;SDS011;64985;46.364;17.008;2023-07-13T07:21:27;4.65;;;1.30;;
76202;SDS011;64985;46.364;17.008;2023-07-13T07:24:30;4.63;;;1.35;;
76202;SDS011;64985;46.364;17.008;2023-07-13T07:27:32;5.75;;;1.30;;
76202;SDS011;64985;46.364;17.008;2023-07-13T07:30:37;3.08;;;1.10;;
76202;SDS011;64985;46.364;17.008;2023-07-13T07:33:47;7.60;;;1.33;;
76202;SDS011;64985;46.364;17.008;2023-07-13T07:36:51;4.40;;;1.60;;
76202;SDS011;64985;46.364;17.008;2023-07-13T07:39:57;6.25;;;1.58;;
76202;SDS011;64985;46.364;17.008;2023-07-13T07:43:03;3.03;;;1.20;;
76202;SDS011;64985;46.364;17.008;2023-07-13T07:46:05;3.50;;;1.23;;
76202;SDS011;64985;46.364;17.008;2023-07-13T07:49:08;3.30;;;1.30;;
76202;SDS011;64985;46.364;17.008;2023-07-13T07:52:10;4.85;;;1.50;;
76202;SDS011;64985;46.364;17.008;2023-07-13T07:55:12;3.05;;;1.45;;
76202;SDS011;64985;46.364;17.008;2023-07-13T07:58:17;6.60;;;1.20;;
76202;SDS011;64985;46.364;17.008;2023-07-13T08:01:39;3.08;;;1.20;;
76202;SDS011;64985;46.364;17.008;2023-07-13T08:05:01;3.95;;;1.30;;
76202;SDS011;64985;46.364;17.008;2023-07-13T08:08:06;3.97;;;1.30;;
76202;SDS011;64985;46.364;17.008;2023-07-13T08:11:08;5.70;;;1.38;;
76202;SDS011;64985;46.364;17.008;2023-07-13T08:14:14;2.65;;;1.35;;
76202;SDS011;64985;46.364;17.008;2023-07-13T08:17:16;6.75;;;1.20;;
76202;SDS011;64985;46.364;17.008;2023-07-13T08:20:18;2.55;;;1.30;;
76202;SDS011;64985;46.364;17.008;2023-07-13T08:23:20;7.10;;;1.60;;
76202;SDS011;64985;46.364;17.008;2023-07-13T08:26:22;7.18;;;1.35;;
76202;SDS011;64985;46.364;17.008;2023-07-13T08:29:24;3.80;;;1.20;;
76202;SDS011;64985;46.364;17.008;2023-07-13T08:32:26;5.07;;;1.25;;
76202;SDS011;64985;46.364;17.008;2023-07-13T08:35:28;3.53;;;1.30;;
76202;SDS011;64985;46.364;17.008;2023-07-13T08:38:30;4.07;;;1.38;;
76202;SDS011;64985;46.364;17.008;2023-07-13T08:41:32;3.80;;;1.42;;
76202;SDS011;64985;46.364;17.008;2023-07-13T08:48:20;5.43;;;1.40;;
76202;SDS011;64985;46.364;17.008;2023-07-13T08:54:38;6.53;;;1.63;;
76202;SDS011;64985;46.364;17.008;2023-07-13T08:57:45;5.82;;;1.70;;
76202;SDS011;64985;46.364;17.008;2023-07-13T09:04:04;2.65;;;1.50;;
76202;SDS011;64985;46.364;17.008;2023-07-13T09:10:40;3.58;;;1.42;;
76202;SDS011;64985;46.364;17.008;2023-07-13T09:17:01;2.42;;;1.60;;
76202;SDS011;64985;46.364;17.008;2023-07-13T09:23:34;4.32;;;1.80;;
76202;SDS011;64985;46.364;17.008;2023-07-13T09:26:37;8.52;;;1.58;;
76202;SDS011;64985;46.364;17.008;2023-07-13T09:29:40;3.25;;;1.40;;
76202;SDS011;64985;46.364;17.008;2023-07-13T09:32:49;2.53;;;1.30;;
76202;SDS011;64985;46.364;17.008;2023-07-13T09:35:53;3.53;;;1.40;;
76202;SDS011;64985;46.364;17.008;2023-07-13T09:45:28;4.53;;;1.50;;
76202;SDS011;64985;46.364;17.008;2023-07-13T09:48:35;3.90;;;1.60;;
76202;SDS011;64985;46.364;17.008;2023-07-13T09:51:40;3.53;;;1.50;;
76202;SDS011;64985;46.364;17.008;2023-07-13T09:54:44;3.90;;;1.50;;
76202;SDS011;64985;46.364;17.008;2023-07-13T09:57:51;3.87;;;1.50;;
76202;SDS011;64985;46.364;17.008;2023-07-13T10:00:58;3.90;;;1.48;;
76202;SDS011;64985;46.364;17.008;2023-07-13T10:04:13;3.10;;;1.50;;
76202;SDS011;64985;46.364;17.008;2023-07-13T10:07:19;4.15;;;1.40;;
76202;SDS011;64985;46.364;17.008;2023-07-13T10:10:30;4.05;;;1.60;;
76202;SDS011;64985;46.364;17.008;2023-07-13T10:13:33;3.05;;;1.40;;
76202;SDS011;64985;46.364;17.008;2023-07-13T10:16:47;2.78;;;1.30;;
76202;SDS011;64985;46.364;17.008;2023-07-13T10:19:53;3.13;;;1.40;;
76202;SDS011;64985;46.364;17.008;2023-07-13T10:23:02;3.40;;;1.25;;
76202;SDS011;64985;46.364;17.008;2023-07-13T10:26:14;3.15;;;1.60;;
76202;SDS011;64985;46.364;17.008;2023-07-13T10:29:26;3.00;;;1.50;;
76202;SDS011;64985;46.364;17.008;2023-07-13T10:32:33;2.25;;;1.40;;
76202;SDS011;64985;46.364;17.008;2023-07-13T10:35:35;4.82;;;1.40;;
76202;SDS011;64985;46.364;17.008;2023-07-13T10:38:37;2.25;;;1.30;;
76202;SDS011;64985;46.364;17.008;2023-07-13T10:41:40;3.78;;;1.30;;
76202;SDS011;64985;46.364;17.008;2023-07-13T10:44:45;2.92;;;1.30;;
76202;SDS011;64985;46.364;17.008;2023-07-13T10:47:48;3.60;;;1.48;;
76202;SDS011;64985;46.364;17.008;2023-07-13T10:50:54;2.42;;;1.30;;
76202;SDS011;64985;46.364;17.008;2023-07-13T10:57:31;3.75;;;1.40;;
76202;SDS011;64985;46.364;17.008;2023-07-13T11:00:48;3.72;;;1.35;;
76202;SDS011;64985;46.364;17.008;2023-07-13T11:04:12;2.17;;;1.40;;
76202;SDS011;64985;46.364;17.008;2023-07-13T11:07:21;2.80;;;1.27;;
76202;SDS011;64985;46.364;17.008;2023-07-13T11:14:05;3.05;;;1.30;;
76202;SDS011;64985;46.364;17.008;2023-07-13T11:20:38;2.17;;;1.20;;
76202;SDS011;64985;46.364;17.008;2023-07-13T11:23:42;2.00;;;1.33;;
76202;SDS011;64985;46.364;17.008;2023-07-13T11:29:48;3.50;;;1.60;;
76202;SDS011;64985;46.364;17.008;2023-07-13T11:32:51;3.47;;;1.27;;
76202;SDS011;64985;46.364;17.008;2023-07-13T11:36:24;2.75;;;1.40;;
76202;SDS011;64985;46.364;17.008;2023-07-13T11:39:34;3.63;;;1.33;;
76202;SDS011;64985;46.364;17.008;2023-07-13T11:42:46;2.00;;;1.33;;
76202;SDS011;64985;46.364;17.008;2023-07-13T11:45:49;2.88;;;1.33;;
76202;SDS011;64985;46.364;17.008;2023-07-13T11:48:52;2.75;;;1.20;;
76202;SDS011;64985;46.364;17.008;2023-07-13T11:51:55;2.42;;;1.15;;
76202;SDS011;64985;46.364;17.008;2023-07-13T11:54:59;2.50;;;1.20;;
76202;SDS011;64985;46.364;17.008;2023-07-13T11:58:03;3.13;;;1.35;;
76202;SDS011;64985;46.364;17.008;2023-07-13T12:01:11;1.92;;;1.30;;
76202;SDS011;64985;46.364;17.008;2023-07-13T12:04:25;2.80;;;1.35;;
76202;SDS011;64985;46.364;17.008;2023-07-13T12:07:31;3.92;;;1.30;;
76202;SDS011;64985;46.364;17.008;2023-07-13T12:10:34;4.53;;;1.50;;
76202;SDS011;64985;46.364;17.008;2023-07-13T12:13:37;3.92;;;1.40;;
76202;SDS011;64985;46.364;17.008;2023-07-13T12:16:43;2.47;;;1.25;;
76202;SDS011;64985;46.364;17.008;2023-07-13T12:19:50;3.85;;;1.13;;
76202;SDS011;64985;46.364;17.008;2023-07-13T12:22:53;4.18;;;1.60;;
76202;SDS011;64985;46.364;17.008;2023-07-13T12:25:56;3.50;;;1.40;;
76202;SDS011;64985;46.364;17.008;2023-07-13T12:29:00;4.40;;;1.58;;
76202;SDS011;64985;46.364;17.008;2023-07-13T12:32:14;6.53;;;1.30;;
76202;SDS011;64985;46.364;17.008;2023-07-13T12:35:19;2.25;;;1.40;;
76202;SDS011;64985;46.364;17.008;2023-07-13T12:38:26;2.85;;;1.10;;
76202;SDS011;64985;46.364;17.008;2023-07-13T12:41:30;4.90;;;1.20;;
76202;SDS011;64985;46.364;17.008;2023-07-13T12:44:34;4.78;;;1.10;;
76202;SDS011;64985;46.364;17.008;2023-07-13T12:47:43;3.08;;;1.20;;
76202;SDS011;64985;46.364;17.008;2023-07-13T12:50:51;3.65;;;1.38;;
76202;SDS011;64985;46.364;17.008;2023-07-13T12:53:57;2.58;;;1.20;;
76202;SDS011;64985;46.364;17.008;2023-07-13T12:57:08;3.50;;;1.30;;
76202;SDS011;64985;46.364;17.008;2023-07-13T13:00:22;2.38;;;1.20;;
76202;SDS011;64985;46.364;17.008;2023-07-13T13:03:29;3.13;;;1.63;;
76202;SDS011;64985;46.364;17.008;2023-07-13T13:06:38;4.60;;;1.20;;
76202;SDS011;64985;46.364;17.008;2023-07-13T13:09:42;1.38;;;1.10;;
76202;SDS011;64985;46.364;17.008;2023-07-13T13:12:44;2.53;;;1.30;;
76202;SDS011;64985;46.364;17.008;2023-07-13T13:15:46;3.45;;;1.30;;
76202;SDS011;64985;46.364;17.008;2023-07-13T13:18:49;3.40;;;1.40;;
76202;SDS011;64985;46.364;17.008;2023-07-13T13:21:53;4.95;;;1.52;;
76202;SDS011;64985;46.364;17.008;2023-07-13T13:24:57;4.25;;;1.30;;
76202;SDS011;64985;46.364;17.008;2023-07-13T13:28:00;4.97;;;1.42;;
76202;SDS011;64985;46.364;17.008;2023-07-13T13:31:03;3.80;;;1.30;;
76202;SDS011;64985;46.364;17.008;2023-07-13T13:34:07;4.63;;;1.50;;
76202;SDS011;64985;46.364;17.008;2023-07-13T13:37:21;1.88;;;1.30;;
76202;SDS011;64985;46.364;17.008;2023-07-13T13:40:24;2.55;;;1.35;;
76202;SDS011;64985;46.364;17.008;2023-07-13T13:43:28;3.47;;;1.45;;
76202;SDS011;64985;46.364;17.008;2023-07-13T13:46:31;3.22;;;1.58;;
76202;SDS011;64985;46.364;17.008;2023-07-13T13:49:33;6.85;;;1.30;;
76202;SDS011;64985;46.364;17.008;2023-07-13T13:52:37;2.70;;;1.50;;
76202;SDS011;64985;46.364;17.008;2023-07-13T13:55:40;2.55;;;1.30;;
76202;SDS011;64985;46.364;17.008;2023-07-13T13:58:43;4.10;;;1.90;;
76202;SDS011;64985;46.364;17.008;2023-07-13T14:01:46;3.92;;;1.80;;
76202;SDS011;64985;46.364;17.008;2023-07-13T14:04:57;5.90;;;1.80;;
76202;SDS011;64985;46.364;17.008;2023-07-13T14:08:01;2.38;;;1.80;;
76202;SDS011;64985;46.364;17.008;2023-07-13T14:11:03;5.65;;;1.92;;
76202;SDS011;64985;46.364;17.008;2023-07-13T14:14:05;11.50;;;3.13;;
76202;SDS011;64985;46.364;17.008;2023-07-13T14:17:18;6.35;;;2.42;;
76202;SDS011;64985;46.364;17.008;2023-07-13T14:20:23;6.07;;;2.80;;
76202;SDS011;64985;46.364;17.008;2023-07-13T14:23:26;5.68;;;2.60;;
76202;SDS011;64985;46.364;17.008;2023-07-13T14:26:29;9.48;;;2.75;;
76202;SDS011;64985;46.364;17.008;2023-07-13T14:29:39;4.72;;;2.95;;
76202;SDS011;64985;46.364;17.008;2023-07-13T14:32:43;7.18;;;3.00;;
76202;SDS011;64985;46.364;17.008;2023-07-13T14:35:46;9.25;;;3.42;;
76202;SDS011;64985;46.364;17.008;2023-07-13T14:38:50;4.82;;;3.13;;
76202;SDS011;64985;46.364;17.008;2023-07-13T14:41:55;6.00;;;3.58;;
76202;SDS011;64985;46.364;17.008;2023-07-13T14:44:58;6.15;;;3.17;;
76202;SDS011;64985;46.364;17.008;2023-07-13T14:48:00;4.28;;;3.35;;
76202;SDS011;64985;46.364;17.008;2023-07-13T14:51:03;6.47;;;3.42;;
76202;SDS011;64985;46.364;17.008;2023-07-13T14:54:07;9.38;;;3.55;;
76202;SDS011;64985;46.364;17.008;2023-07-13T14:57:14;6.18;;;3.38;;
76202;SDS011;64985;46.364;17.008;2023-07-13T15:00:21;9.52;;;3.80;;
76202;SDS011;64985;46.364;17.008;2023-07-13T15:03:26;7.18;;;4.00;;
76202;SDS011;64985;46.364;17.008;2023-07-13T15:06:29;6.57;;;3.35;;
76202;SDS011;64985;46.364;17.008;2023-07-13T15:09:33;5.70;;;3.40;;
76202;SDS011;64985;46.364;17.008;2023-07-13T15:12:35;11.90;;;3.75;;
76202;SDS011;64985;46.364;17.008;2023-07-13T15:15:37;11.00;;;4.40;;
76202;SDS011;64985;46.364;17.008;2023-07-13T15:18:42;6.72;;;3.85;;
76202;SDS011;64985;46.364;17.008;2023-07-13T15:21:44;5.70;;;3.50;;
76202;SDS011;64985;46.364;17.008;2023-07-13T15:24:47;4.90;;;3.15;;
76202;SDS011;64985;46.364;17.008;2023-07-13T15:27:50;5.80;;;3.50;;
76202;SDS011;64985;46.364;17.008;2023-07-13T15:30:53;6.35;;;2.75;;
76202;SDS011;64985;46.364;17.008;2023-07-13T15:33:56;6.05;;;3.17;;
76202;SDS011;64985;46.364;17.008;2023-07-13T15:37:02;5.72;;;3.00;;
76202;SDS011;64985;46.364;17.008;2023-07-13T15:40:09;6.50;;;2.53;;
76202;SDS011;64985;46.364;17.008;2023-07-13T15:43:13;5.05;;;2.63;;
76202;SDS011;64985;46.364;17.008;2023-07-13T15:46:20;6.15;;;2.60;;
76202;SDS011;64985;46.364;17.008;2023-07-13T15:49:24;4.40;;;2.70;;
76202;SDS011;64985;46.364;17.008;2023-07-13T15:52:26;5.57;;;2.80;;
76202;SDS011;64985;46.364;17.008;2023-07-13T15:55:37;9.13;;;2.55;;
76202;SDS011;64985;46.364;17.008;2023-07-13T15:58:41;3.85;;;2.30;;
76202;SDS011;64985;46.364;17.008;2023-07-13T16:01:43;6.50;;;2.50;;
76202;SDS011;64985;46.364;17.008;2023-07-13T16:04:48;4.78;;;2.83;;
76202;SDS011;64985;46.364;17.008;2023-07-13T16:07:50;7.47;;;3.20;;
76202;SDS011;64985;46.364;17.008;2023-07-13T16:10:54;6.80;;;2.80;;
76202;SDS011;64985;46.364;17.008;2023-07-13T16:13:58;5.65;;;3.03;;
76202;SDS011;64985;46.364;17.008;2023-07-13T16:17:01;11.15;;;3.30;;
76202;SDS011;64985;46.364;17.008;2023-07-13T16:20:03;8.30;;;2.88;;
76202;SDS011;64985;46.364;17.008;2023-07-13T16:23:08;5.82;;;3.10;;
76202;SDS011;64985;46.364;17.008;2023-07-13T16:26:19;9.32;;;3.08;;
76202;SDS011;64985;46.364;17.008;2023-07-13T16:29:28;6.15;;;3.20;;
76202;SDS011;64985;46.364;17.008;2023-07-13T16:32:32;6.75;;;3.30;;
76202;SDS011;64985;46.364;17.008;2023-07-13T16:35:36;5.97;;;3.28;;
76202;SDS011;64985;46.364;17.008;2023-07-13T16:38:40;5.45;;;3.13;;
76202;SDS011;64985;46.364;17.008;2023-07-13T16:41:42;9.82;;;3.25;;
76202;SDS011;64985;46.364;17.008;2023-07-13T16:44:46;7.00;;;3.47;;
76202;SDS011;64985;46.364;17.008;2023-07-13T16:47:48;6.53;;;3.42;;
76202;SDS011;64985;46.364;17.008;2023-07-13T16:50:53;10.00;;;4.20;;
76202;SDS011;64985;46.364;17.008;2023-07-13T16:53:57;8.82;;;4.07;;
76202;SDS011;64985;46.364;17.008;2023-07-13T16:57:00;7.20;;;4.25;;
76202;SDS011;64985;46.364;17.008;2023-07-13T17:00:27;7.00;;;4.45;;
76202;SDS011;64985;46.364;17.008;2023-07-13T17:03:29;9.57;;;5.10;;
76202;SDS011;64985;46.364;17.008;2023-07-13T17:06:31;8.82;;;4.55;;
76202;SDS011;64985;46.364;17.008;2023-07-13T17:09:33;9.13;;;4.38;;
76202;SDS011;64985;46.364;17.008;2023-07-13T17:12:36;11.98;;;3.78;;
76202;SDS011;64985;46.364;17.008;2023-07-13T17:15:39;7.97;;;4.00;;
76202;SDS011;64985;46.364;17.008;2023-07-13T17:18:41;8.70;;;3.55;;
76202;SDS011;64985;46.364;17.008;2023-07-13T17:21:46;5.57;;;3.75;;
76202;SDS011;64985;46.364;17.008;2023-07-13T17:24:49;12.00;;;3.83;;
76202;SDS011;64985;46.364;17.008;2023-07-13T17:27:51;7.07;;;3.22;;
76202;SDS011;64985;46.364;17.008;2023-07-13T17:30:54;8.27;;;3.70;;
76202;SDS011;64985;46.364;17.008;2023-07-13T17:34:01;10.80;;;3.80;;
76202;SDS011;64985;46.364;17.008;2023-07-13T17:37:04;8.40;;;3.65;;
76202;SDS011;64985;46.364;17.008;2023-07-13T17:40:13;6.43;;;3.53;;
76202;SDS011;64985;46.364;17.008;2023-07-13T17:43:19;8.38;;;3.40;;
76202;SDS011;64985;46.364;17.008;2023-07-13T17:46:27;11.65;;;3.92;;
76202;SDS011;64985;46.364;17.008;2023-07-13T17:49:31;4.80;;;3.72;;
76202;SDS011;64985;46.364;17.008;2023-07-13T17:52:34;10.70;;;4.45;;
76202;SDS011;64985;46.364;17.008;2023-07-13T17:55:36;10.15;;;4.05;;
76202;SDS011;64985;46.364;17.008;2023-07-13T17:58:39;8.32;;;4.32;;
76202;SDS011;64985;46.364;17.008;2023-07-13T18:01:44;9.10;;;4.82;;
76202;SDS011;64985;46.364;17.008;2023-07-13T18:04:48;7.65;;;5.13;;
76202;SDS011;64985;46.364;17.008;2023-07-13T18:07:51;6.40;;;4.32;;
76202;SDS011;64985;46.364;17.008;2023-07-13T18:10:56;12.80;;;4.53;;
76202;SDS011;64985;46.364;17.008;2023-07-13T18:14:00;8.25;;;4.03;;
76202;SDS011;64985;46.364;17.008;2023-07-13T18:17:04;7.55;;;3.90;;
76202;SDS011;64985;46.364;17.008;2023-07-13T18:20:14;15.23;;;5.00;;
76202;SDS011;64985;46.364;17.008;2023-07-13T18:23:20;6.40;;;4.00;;
76202;SDS011;64985;46.364;17.008;2023-07-13T18:26:26;8.98;;;3.95;;
76202;SDS011;64985;46.364;17.008;2023-07-13T18:29:30;7.55;;;4.93;;
76202;SDS011;64985;46.364;17.008;2023-07-13T18:32:33;10.02;;;5.68;;
76202;SDS011;64985;46.364;17.008;2023-07-13T18:35:38;9.43;;;5.57;;
76202;SDS011;64985;46.364;17.008;2023-07-13T18:38:42;9.48;;;5.50;;
76202;SDS011;64985;46.364;17.008;2023-07-13T18:41:46;6.05;;;4.68;;
76202;SDS011;64985;46.364;17.008;2023-07-13T18:44:49;13.15;;;5.35;;
76202;SDS011;64985;46.364;17.008;2023-07-13T18:47:54;6.95;;;5.30;;
76202;SDS011;64985;46.364;17.008;2023-07-13T18:51:00;17.80;;;6.27;;
76202;SDS011;64985;46.364;17.008;2023-07-13T18:54:08;13.75;;;5.85;;
76202;SDS011;64985;46.364;17.008;2023-07-13T18:57:17;8.85;;;5.75;;
76202;SDS011;64985;46.364;17.008;2023-07-13T19:00:23;6.90;;;5.43;;
76202;SDS011;64985;46.364;17.008;2023-07-13T19:03:30;8.73;;;5.43;;
76202;SDS011;64985;46.364;17.008;2023-07-13T19:06:35;6.53;;;4.97;;
76202;SDS011;64985;46.364;17.008;2023-07-13T19:09:38;11.13;;;5.85;;
76202;SDS011;64985;46.364;17.008;2023-07-13T19:12:49;8.80;;;5.57;;
76202;SDS011;64985;46.364;17.008;2023-07-13T19:15:57;9.68;;;5.50;;
76202;SDS011;64985;46.364;17.008;2023-07-13T19:19:00;7.75;;;5.65;;
76202;SDS011;64985;46.364;17.008;2023-07-13T19:22:04;8.70;;;5.40;;
76202;SDS011;64985;46.364;17.008;2023-07-13T19:25:12;6.72;;;5.35;;
76202;SDS011;64985;46.364;17.008;2023-07-13T19:28:35;8.43;;;5.40;;
76202;SDS011;64985;46.364;17.008;2023-07-13T19:31:41;12.57;;;5.78;;
76202;SDS011;64985;46.364;17.008;2023-07-13T19:34:44;10.57;;;6.03;;
76202;SDS011;64985;46.364;17.008;2023-07-13T19:37:46;10.43;;;6.50;;
76202;SDS011;64985;46.364;17.008;2023-07-13T19:40:49;12.10;;;7.13;;
76202;SDS011;64985;46.364;17.008;2023-07-13T19:43:53;8.68;;;6.80;;
76202;SDS011;64985;46.364;17.008;2023-07-13T19:46:56;12.57;;;6.75;;
76202;SDS011;64985;46.364;17.008;2023-07-13T19:50:01;10.60;;;5.97;;
76202;SDS011;64985;46.364;17.008;2023-07-13T19:53:09;10.35;;;6.55;;
76202;SDS011;64985;46.364;17.008;2023-07-13T19:56:25;9.77;;;6.35;;
76202;SDS011;64985;46.364;17.008;2023-07-13T19:59:29;9.20;;;6.38;;
76202;SDS011;64985;46.364;17.008;2023-07-13T20:02:33;9.45;;;5.88;;
76202;SDS011;64985;46.364;17.008;2023-07-13T20:05:37;8.43;;;5.90;;
76202;SDS011;64985;46.364;17.008;2023-07-13T20:08:39;7.97;;;5.25;;
76202;SDS011;64985;46.364;17.008;2023-07-13T20:11:43;7.15;;;5.30;;
76202;SDS011;64985;46.364;17.008;2023-07-13T20:14:48;6.90;;;5.30;;
76202;SDS011;64985;46.364;17.008;2023-07-13T20:17:53;9.43;;;5.40;;
76202;SDS011;64985;46.364;17.008;2023-07-13T20:20:58;6.53;;;5.22;;
76202;SDS011;64985;46.364;17.008;2023-07-13T20:24:00;9.48;;;5.55;;
76202;SDS011;64985;46.364;17.008;2023-07-13T20:27:07;13.80;;;5.85;;
76202;SDS011;64985;46.364;17.008;2023-07-13T20:30:09;11.73;;;6.57;;
76202;SDS011;64985;46.364;17.008;2023-07-13T20:33:16;13.32;;;6.38;;
76202;SDS011;64985;46.364;17.008;2023-07-13T20:36:23;8.95;;;6.40;;
76202;SDS011;64985;46.364;17.008;2023-07-13T20:39:25;11.40;;;6.40;;
76202;SDS011;64985;46.364;17.008;2023-07-13T20:42:27;15.70;;;7.22;;
76202;SDS011;64985;46.364;17.008;2023-07-13T20:45:30;14.32;;;6.47;;
76202;SDS011;64985;46.364;17.008;2023-07-13T20:48:36;10.13;;;6.82;;
76202;SDS011;64985;46.364;17.008;2023-07-13T20:51:41;23.55;;;7.00;;
76202;SDS011;64985;46.364;17.008;2023-07-13T20:54:44;11.02;;;7.15;;
76202;SDS011;64985;46.364;17.008;2023-07-13T20:57:48;15.38;;;6.90;;
76202;SDS011;64985;46.364;17.008;2023-07-13T21:00:51;12.02;;;6.85;;
76202;SDS011;64985;46.364;17.008;2023-07-13T21:04:00;13.93;;;6.90;;
76202;SDS011;64985;46.364;17.008;2023-07-13T21:07:04;13.75;;;6.68;;
76202;SDS011;64985;46.364;17.008;2023-07-13T21:10:17;12.45;;;6.75;;
76202;SDS011;64985;46.364;17.008;2023-07-13T21:13:22;10.75;;;6.72;;
76202;SDS011;64985;46.364;17.008;2023-07-13T21:16:26;16.50;;;6.65;;
76202;SDS011;64985;46.364;17.008;2023-07-13T21:19:29;13.23;;;7.35;;
76202;SDS011;64985;46.364;17.008;2023-07-13T21:22:32;11.35;;;6.47;;
76202;SDS011;64985;46.364;17.008;2023-07-13T21:25:35;12.93;;;6.32;;
76202;SDS011;64985;46.364;17.008;2023-07-13T21:28:41;12.20;;;6.35;;
76202;SDS011;64985;46.364;17.008;2023-07-13T21:31:45;11.77;;;6.20;;
76202;SDS011;64985;46.364;17.008;2023-07-13T21:34:47;10.52;;;6.18;;
76202;SDS011;64985;46.364;17.008;2023-07-13T21:37:50;11.45;;;5.60;;
76202;SDS011;64985;46.364;17.008;2023-07-13T21:40:53;12.65;;;6.38;;
76202;SDS011;64985;46.364;17.008;2023-07-13T21:44:01;15.05;;;6.70;;
76202;SDS011;64985;46.364;17.008;2023-07-13T21:47:07;11.02;;;6.47;;
76202;SDS011;64985;46.364;17.008;2023-07-13T21:50:14;11.32;;;6.20;;
76202;SDS011;64985;46.364;17.008;2023-07-13T21:53:29;13.10;;;6.45;;
76202;SDS011;64985;46.364;17.008;2023-07-13T21:56:32;9.02;;;5.88;;
76202;SDS011;64985;46.364;17.008;2023-07-13T21:59:34;13.68;;;6.47;;
76202;SDS011;64985;46.364;17.008;2023-07-13T22:02:37;8.95;;;5.65;;
76202;SDS011;64985;46.364;17.008;2023-07-13T22:05:39;8.40;;;5.75;;
76202;SDS011;64985;46.364;17.008;2023-07-13T22:08:42;13.55;;;6.50;;
76202;SDS011;64985;46.364;17.008;2023-07-13T22:11:45;11.00;;;5.88;;
76202;SDS011;64985;46.364;17.008;2023-07-13T22:14:47;12.25;;;6.55;;
76202;SDS011;64985;46.364;17.008;2023-07-13T22:17:49;9.63;;;6.03;;
76202;SDS011;64985;46.364;17.008;2023-07-13T22:20:52;9.02;;;6.13;;
76202;SDS011;64985;46.364;17.008;2023-07-13T22:23:54;9.43;;;6.57;;
76202;SDS011;64985;46.364;17.008;2023-07-13T22:26:57;12.43;;;6.60;;
76202;SDS011;64985;46.364;17.008;2023-07-13T22:29:59;11.68;;;7.15;;
76202;SDS011;64985;46.364;17.008;2023-07-13T22:33:06;13.70;;;8.68;;
76202;SDS011;64985;46.364;17.008;2023-07-13T22:36:14;18.20;;;9.85;;
76202;SDS011;64985;46.364;17.008;2023-07-13T22:39:21;14.55;;;9.90;;
76202;SDS011;64985;46.364;17.008;2023-07-13T22:45:29;19.10;;;10.57;;
76202;SDS011;64985;46.364;17.008;2023-07-13T22:48:37;17.27;;;10.35;;
76202;SDS011;64985;46.364;17.008;2023-07-13T22:51:41;15.73;;;10.98;;
76202;SDS011;64985;46.364;17.008;2023-07-13T22:54:44;17.92;;;10.80;;
76202;SDS011;64985;46.364;17.008;2023-07-13T22:57:47;17.38;;;10.90;;
76202;SDS011;64985;46.364;17.008;2023-07-13T23:00:56;16.42;;;11.20;;
76202;SDS011;64985;46.364;17.008;2023-07-13T23:04:00;22.27;;;10.55;;